createdAt,value
2022-09-12T00:03:53.152Z,99156.19
2022-09-12T00:08:57.568Z,99156.22
2022-09-12T00:14:01.538Z,99173.13
2022-09-12T00:19:05.605Z,99179.91
2022-09-12T00:24:09.709Z,99179.75
2022-09-12T00:29:20.491Z,99179.56
2022-09-12T00:34:23.178Z,99180.38
2022-09-12T00:39:25.918Z,99186.22
2022-09-12T00:44:28.974Z,99195.53
2022-09-12T00:49:50.191Z,99212.44
2022-09-12T00:55:29.369Z,99208.13
2022-09-12T01:00:32.296Z,99219.03
2022-09-12T01:05:37.349Z,99224.94
2022-09-12T01:10:41.177Z,99229.97
2022-09-12T01:15:44.222Z,99233.06
2022-09-12T01:21:03.978Z,99236.28
2022-09-12T01:26:31.853Z,99244.50
2022-09-12T01:32:01.924Z,99243.41
2022-09-12T01:37:15.852Z,99236.22
2022-09-12T01:42:24.526Z,99255.91
2022-09-12T01:47:44.371Z,99268.63
2022-09-12T01:52:56.900Z,99265.03
2022-09-12T01:58:17.752Z,99280.28
2022-09-12T02:03:34.226Z,99271.72
2022-09-12T02:08:53.913Z,99269.00
2022-09-12T02:14:07.968Z,99281.03
2022-09-12T02:19:17.313Z,99276.84
2022-09-12T02:24:21.336Z,99281.06
2022-09-12T02:29:24.145Z,99280.84
2022-09-12T02:34:46.335Z,99296.22
2022-09-12T02:39:49.066Z,99290.47
2022-09-12T02:44:53.481Z,99307.41
2022-09-12T02:49:57.482Z,99306.44
2022-09-12T02:55:00.558Z,99318.44
2022-09-12T03:00:05.214Z,99311.03
2022-09-12T03:05:52.617Z,99336.22
2022-09-12T03:11:15.634Z,99337.88
2022-09-12T03:16:33.395Z,99347.31
2022-09-12T03:21:49.124Z,99363.41
2022-09-12T03:27:00.729Z,99362.22
2022-09-12T03:32:03.612Z,99367.34
2022-09-12T03:37:08.971Z,99375.59
2022-09-12T03:42:11.754Z,99394.44
2022-09-12T03:47:14.474Z,99400.53
2022-09-12T03:52:17.637Z,99408.72
2022-09-12T03:57:21.487Z,99417.22
2022-09-12T04:02:28.696Z,99426.97
2022-09-12T04:07:31.448Z,99435.66
2022-09-12T04:12:36.054Z,99450.69
2022-09-12T04:17:38.929Z,99453.19
2022-09-12T04:22:42.525Z,99467.56
2022-09-12T04:27:49.770Z,99460.50
2022-09-12T04:32:53.430Z,99483.19
2022-09-12T04:37:56.181Z,99500.16
2022-09-12T04:43:01.799Z,99520.47
2022-09-12T04:48:04.737Z,99498.13
2022-09-12T04:53:07.933Z,99520.34
2022-09-12T04:58:19.526Z,99538.41
2022-09-12T05:03:25.226Z,99543.16
2022-09-12T05:08:30.759Z,99548.28
2022-09-12T05:13:34.243Z,99561.09
2022-09-12T05:18:37.620Z,99572.75
2022-09-12T05:23:43.393Z,99577.72
2022-09-12T05:40:42.503Z,99599.59
2022-09-12T05:45:45.475Z,99609.25
2022-09-12T05:51:01.913Z,99608.28
2022-09-12T05:56:12.212Z,99633.19
2022-09-12T06:01:19.700Z,99664.91
2022-09-12T06:06:24.845Z,99664.25
2022-09-12T06:11:29.738Z,99680.72
2022-09-12T06:16:34.097Z,99694.97
2022-09-12T06:21:38.273Z,99702.94
2022-09-12T06:26:41.057Z,99705.41
2022-09-12T06:31:44.491Z,99722.16
2022-09-12T06:36:53.947Z,99744.59
2022-09-12T06:41:56.723Z,99760.63
2022-09-12T06:47:09.295Z,99758.00
2022-09-12T06:52:11.996Z,99773.50
2022-09-12T06:57:15.106Z,99791.72
2022-09-12T07:02:17.842Z,99806.19
2022-09-12T07:07:20.881Z,99802.47
2022-09-12T07:12:23.547Z,99825.41
2022-09-12T07:17:26.216Z,99827.50
2022-09-12T07:22:31.945Z,99840.97
2022-09-12T07:27:34.854Z,99852.19
2022-09-12T07:32:37.548Z,99853.19
2022-09-12T07:37:40.337Z,99863.81
2022-09-12T07:42:43.161Z,99884.50
2022-09-12T07:47:45.865Z,99897.56
2022-09-12T07:52:48.601Z,99895.84
2022-09-12T07:57:52.731Z,99909.47
2022-09-12T08:02:55.593Z,99921.22
2022-09-12T08:07:58.399Z,99932.66
2022-09-12T08:13:01.087Z,99941.31
2022-09-12T08:18:03.938Z,99949.41
2022-09-12T08:23:06.715Z,99961.06
2022-09-12T08:28:09.501Z,99972.63
2022-09-12T08:33:12.367Z,99984.56
2022-09-12T08:38:15.055Z,100005.94
2022-09-12T08:43:34.200Z,100015.25
2022-09-12T08:48:37.311Z,100028.34
2022-09-12T08:53:40.631Z,100017.41
2022-09-12T08:58:45.345Z,100029.78
2022-09-12T09:03:57.042Z,100037.22
2022-09-12T09:09:05.336Z,100044.41
2022-09-12T09:14:51.305Z,100044.31
2022-09-12T09:20:41.614Z,100063.13
2022-09-12T09:26:15.317Z,100081.78
2022-09-12T09:31:23.448Z,100092.13
2022-09-12T09:36:47.459Z,100114.44
2022-09-12T09:42:10.849Z,100129.78
2022-09-12T09:47:13.657Z,100134.19
2022-09-12T09:52:18.109Z,100145.81
2022-09-12T09:57:37.635Z,100182.09
2022-09-12T10:02:47.197Z,100187.63
2022-09-12T10:07:53.512Z,100197.84
2022-09-12T10:13:09.469Z,100208.66
2022-09-12T10:18:13.014Z,100203.25
2022-09-12T10:23:38.278Z,100233.19
2022-09-12T10:28:51.585Z,100243.06
2022-09-12T10:33:55.044Z,100248.13
2022-09-12T10:39:01.024Z,100253.44
2022-09-12T10:44:14.801Z,100253.59
2022-09-12T10:49:27.918Z,100266.78
2022-09-12T10:54:31.221Z,100275.22
2022-09-12T10:59:45.796Z,100285.19
2022-09-12T11:04:57.505Z,100292.00
2022-09-12T11:10:15.197Z,100302.03
2022-09-12T11:15:35.761Z,100312.88
2022-09-12T11:20:44.685Z,100335.84
2022-09-12T11:25:52.986Z,100328.59
2022-09-12T11:31:25.962Z,100354.97
2022-09-12T11:36:57.935Z,100357.00
2022-09-12T11:42:04.109Z,100373.16
2022-09-12T11:47:08.756Z,100392.84
2022-09-12T11:52:11.468Z,100381.91
2022-09-12T11:57:36.136Z,100412.22
2022-09-12T12:03:04.649Z,100409.25
2022-09-12T12:08:07.487Z,100419.97
2022-09-12T12:13:34.916Z,100432.72
2022-09-12T12:18:39.112Z,100445.13
2022-09-12T12:24:09.989Z,100456.84
2022-09-12T12:29:18.855Z,100466.03
2022-09-12T12:34:28.816Z,100486.19
2022-09-12T12:39:34.503Z,100492.13
2022-09-12T12:44:46.161Z,100485.81
2022-09-12T12:50:11.116Z,100513.47
2022-09-12T12:55:40.219Z,100525.22
2022-09-12T13:00:43.485Z,100542.53
2022-09-12T13:06:02.337Z,100560.03
2022-09-12T13:11:32.804Z,100574.75
2022-09-12T13:16:54.120Z,100575.63
2022-09-12T13:22:00.586Z,100588.38
2022-09-12T13:27:03.448Z,100608.38
2022-09-12T13:32:07.363Z,100614.50
2022-09-12T13:37:13.021Z,100632.69
2022-09-12T13:42:50.072Z,100629.69
2022-09-12T13:47:59.056Z,100645.94
2022-09-12T13:53:13.680Z,100658.22
2022-09-12T13:58:24.360Z,100664.22
2022-09-12T14:03:47.622Z,100683.22
2022-09-12T14:08:50.462Z,100690.00
2022-09-12T14:13:53.645Z,100698.88
2022-09-12T14:18:57.353Z,100707.34
2022-09-12T14:24:01.159Z,100730.69
2022-09-12T14:29:08.019Z,100738.50
2022-09-12T14:34:20.848Z,100747.94
2022-09-12T14:39:38.369Z,100763.06
2022-09-12T14:44:41.906Z,100765.78
2022-09-12T14:49:47.359Z,100770.97
2022-09-12T14:55:15.553Z,100785.56
2022-09-12T15:00:40.944Z,100785.44
2022-09-12T15:05:50.123Z,100797.47
2022-09-12T15:10:53.133Z,100818.63
2022-09-12T15:15:58.085Z,100808.75
2022-09-12T15:21:06.514Z,100826.50
2022-09-12T15:26:16.051Z,100826.59
2022-09-12T15:31:27.325Z,100840.09
2022-09-12T15:36:30.389Z,100848.47
2022-09-12T15:41:43.793Z,100854.41
2022-09-12T15:46:49.529Z,100865.31
2022-09-12T15:51:53.990Z,100873.09
2022-09-12T15:56:59.856Z,100883.28
2022-09-12T16:02:10.886Z,100884.41
2022-09-12T16:07:13.693Z,100878.94
2022-09-12T16:12:16.499Z,100896.19
2022-09-12T16:17:24.941Z,100908.03
2022-09-12T16:22:28.148Z,100917.53
2022-09-12T16:27:31.711Z,100922.59
2022-09-12T16:32:34.763Z,100934.53
2022-09-12T16:37:37.607Z,100941.19
2022-09-12T16:42:43.636Z,100944.91
2022-09-12T16:47:46.726Z,100950.63
2022-09-12T16:52:49.459Z,100962.03
2022-09-12T16:57:52.311Z,100967.25
2022-09-12T17:02:55.056Z,100973.22
2022-09-12T17:07:57.826Z,100973.78
2022-09-12T17:13:00.569Z,100992.41
2022-09-12T17:18:03.303Z,100979.09
2022-09-12T17:23:09.629Z,101008.44
2022-09-12T17:28:12.680Z,101013.66
2022-09-12T17:33:15.854Z,101021.28
2022-09-12T17:38:24.564Z,101019.53
2022-09-12T17:43:27.963Z,101026.19
2022-09-12T17:48:31.227Z,101031.28
2022-09-12T17:53:34.950Z,101038.88
2022-09-12T17:58:38.213Z,101037.13
2022-09-12T18:03:40.956Z,101055.59
2022-09-12T18:08:43.764Z,101058.22
2022-09-12T18:13:46.741Z,101078.53
2022-09-12T18:18:51.398Z,101081.06
2022-09-12T18:23:54.348Z,101087.72
2022-09-12T18:28:57.716Z,101090.19
2022-09-12T18:34:01.370Z,101094.47
2022-09-12T18:39:04.099Z,101103.09
2022-09-12T18:44:08.079Z,101105.56
2022-09-12T18:49:11.400Z,101105.97
2022-09-12T18:54:14.952Z,101106.50
2022-09-12T18:59:17.853Z,101121.25
2022-09-12T19:04:20.668Z,101121.19
2022-09-12T19:09:23.655Z,101124.97
2022-09-12T19:14:27.274Z,101131.00
2022-09-12T19:19:30.085Z,101135.03
2022-09-12T19:24:33.081Z,101132.41
2022-09-12T19:29:35.854Z,101136.50
2022-09-12T19:34:38.547Z,101143.34
2022-09-12T19:39:44.459Z,101145.53
2022-09-12T19:44:47.322Z,101157.69
2022-09-12T19:49:50.032Z,101156.91
2022-09-12T19:54:52.741Z,101157.94
2022-09-12T19:59:55.899Z,101156.19
2022-09-12T20:04:58.729Z,101164.75
2022-09-12T20:10:01.535Z,101170.00
2022-09-12T20:15:06.454Z,101169.31
2022-09-12T20:20:10.775Z,101180.31
2022-09-12T20:25:13.488Z,101179.34
2022-09-12T20:30:16.667Z,101186.91
2022-09-12T20:35:19.507Z,101195.72
2022-09-12T20:40:22.298Z,101189.75
2022-09-12T20:45:25.148Z,101188.78
2022-09-12T20:50:28.181Z,101198.16
2022-09-12T20:55:30.910Z,101202.53
2022-09-12T21:00:33.541Z,101202.38
2022-09-12T21:05:36.265Z,101210.75
2022-09-12T21:10:42.274Z,101225.13
2022-09-12T21:15:45.551Z,101223.53
2022-09-12T21:20:55.301Z,101227.91
2022-09-12T21:25:59.610Z,101230.28
2022-09-12T21:31:02.348Z,101231.78
2022-09-12T21:36:06.221Z,101230.19
2022-09-12T21:41:16.211Z,101243.84
2022-09-12T21:46:18.996Z,101243.59
2022-09-12T21:51:22.211Z,101249.09
2022-09-12T21:56:24.849Z,101256.09
2022-09-12T22:01:27.668Z,101262.91
2022-09-12T22:06:30.490Z,101269.72
2022-09-12T22:11:33.382Z,101266.59
2022-09-12T22:16:36.071Z,101283.38
2022-09-12T22:21:58.656Z,101283.22
2022-09-12T22:27:04.132Z,101292.41
2022-09-12T22:32:06.579Z,101285.50
2022-09-12T22:37:11.637Z,101292.91
2022-09-12T22:42:14.767Z,101290.47
2022-09-12T22:47:20.351Z,101291.94
2022-09-12T22:52:23.641Z,101304.91
2022-09-12T22:57:26.324Z,101314.97
2022-09-12T23:02:30.041Z,101324.88
2022-09-12T23:07:33.563Z,101331.50
2022-09-12T23:12:36.332Z,101327.31
2022-09-12T23:17:39.219Z,101343.22
2022-09-12T23:22:42.090Z,101344.97
2022-09-12T23:27:44.908Z,101348.38
2022-09-12T23:32:50.547Z,101366.41
2022-09-12T23:37:53.239Z,101365.63
2022-09-12T23:42:56.271Z,101369.97
2022-09-12T23:47:59.282Z,101385.41
2022-09-12T23:53:02.009Z,101388.09
2022-09-12T23:58:04.748Z,101395.00
